createdAt,value
2023-05-03T00:00:01.888Z,4.07
2023-05-03T00:05:13.303Z,4.80
2023-05-03T00:10:19.621Z,4.47
2023-05-03T00:15:24.793Z,4.40
2023-05-03T00:20:32.407Z,4.70
2023-05-03T00:25:38.366Z,5.10
2023-05-03T00:30:43.420Z,5.47
2023-05-03T00:35:51.284Z,5.20
2023-05-03T00:40:57.761Z,4.87
2023-05-03T00:46:15.980Z,5.50
2023-05-03T00:51:26.466Z,5.67
2023-05-03T00:56:38.026Z,5.10
2023-05-03T01:01:54.453Z,5.40
2023-05-03T01:07:12.100Z,5.97
2023-05-03T01:12:33.440Z,6.20
2023-05-03T01:17:43.034Z,6.10
2023-05-03T01:23:09.979Z,5.47
2023-05-03T01:28:17.547Z,5.67
2023-05-03T01:33:46.601Z,5.90
2023-05-03T01:38:53.829Z,6.33
2023-05-03T01:44:02.394Z,6.20
2023-05-03T01:49:07.631Z,6.73
2023-05-03T01:54:12.816Z,5.80
2023-05-03T01:59:20.525Z,6.43
2023-05-03T02:04:25.817Z,5.87
2023-05-03T02:09:32.066Z,6.40
2023-05-03T02:14:41.322Z,4.97
2023-05-03T02:19:47.341Z,4.30
2023-05-03T02:24:52.474Z,4.87
2023-05-03T02:30:00.353Z,4.60
2023-05-03T02:35:06.755Z,4.60
2023-05-03T02:40:13.323Z,4.27
2023-05-03T02:45:23.763Z,4.10
2023-05-03T02:50:28.917Z,3.73
2023-05-03T02:55:34.545Z,4.33
2023-05-03T03:00:43.092Z,3.30
2023-05-03T03:05:49.123Z,4.13
2023-05-03T03:10:54.457Z,3.77
2023-05-03T03:16:02.474Z,4.10
2023-05-03T03:21:09.100Z,4.13
2023-05-03T03:26:15.006Z,3.60
2023-05-03T03:31:23.317Z,3.50
2023-05-03T03:36:28.781Z,4.27
2023-05-03T03:41:37.120Z,4.00
2023-05-03T03:46:45.051Z,3.77
2023-05-03T03:51:50.547Z,3.83
2023-05-03T03:56:56.816Z,3.73
2023-05-03T04:02:05.300Z,3.43
2023-05-03T04:07:12.865Z,2.93
2023-05-03T04:12:18.420Z,3.97
2023-05-03T04:17:27.087Z,3.83
2023-05-03T04:22:33.464Z,3.53
2023-05-03T04:27:38.892Z,3.90
2023-05-03T04:32:47.870Z,3.23
2023-05-03T04:37:55.629Z,4.77
2023-05-03T04:43:04.627Z,4.40
2023-05-03T04:48:15.418Z,4.03
2023-05-03T04:53:23.733Z,4.80
2023-05-03T04:58:47.466Z,4.97
2023-05-03T05:04:02.812Z,5.60
2023-05-03T05:09:24.835Z,6.03
2023-05-03T05:14:35.094Z,5.97
2023-05-03T05:19:47.450Z,5.67
2023-05-03T05:24:53.697Z,5.47
2023-05-03T05:30:01.432Z,4.63
2023-05-03T05:35:19.243Z,4.97
2023-05-03T05:40:29.080Z,5.10
2023-05-03T05:45:39.264Z,4.30
2023-05-03T05:50:49.244Z,4.67
2023-05-03T05:55:57.353Z,4.20
2023-05-03T06:01:09.001Z,3.50
2023-05-03T06:06:20.383Z,4.40
2023-05-03T06:11:29.261Z,4.37
2023-05-03T06:16:37.280Z,4.30
2023-05-03T06:21:48.228Z,4.23
2023-05-03T06:26:56.012Z,3.90
2023-05-03T06:32:04.740Z,3.57
2023-05-03T06:37:14.298Z,3.40
2023-05-03T06:42:22.253Z,3.70
2023-05-03T06:47:30.785Z,3.50
2023-05-03T06:52:40.128Z,3.67
2023-05-03T06:57:47.918Z,3.23
2023-05-03T07:02:53.204Z,3.10
2023-05-03T07:08:03.993Z,4.50
2023-05-03T07:13:09.186Z,2.80
2023-05-03T07:18:14.513Z,2.53
2023-05-03T07:23:22.888Z,3.13
2023-05-03T07:28:30.498Z,2.83
2023-05-03T07:33:37.856Z,2.97
2023-05-03T07:38:52.976Z,2.67
2023-05-03T07:44:01.533Z,2.70
2023-05-03T08:00:53.711Z,2.60
2023-05-03T08:05:59.820Z,2.90
2023-05-03T08:11:07.002Z,3.00
2023-05-03T08:16:16.875Z,2.83
2023-05-03T08:21:25.014Z,3.00
2023-05-03T08:26:30.374Z,5.83
2023-05-03T08:31:39.996Z,3.57
2023-05-03T08:36:45.239Z,3.23
2023-05-03T08:41:54.099Z,3.90
2023-05-03T08:47:06.658Z,3.40
2023-05-03T08:52:24.769Z,3.20
2023-05-03T08:57:38.641Z,3.73
2023-05-03T09:02:50.482Z,3.10
2023-05-03T09:08:05.691Z,4.27
2023-05-03T09:13:13.700Z,3.50
2023-05-03T09:18:29.711Z,2.93
2023-05-03T09:23:35.218Z,2.77
2023-05-03T09:28:45.075Z,3.63
2023-05-03T09:33:54.132Z,2.93
2023-05-03T09:38:59.473Z,2.97
2023-05-03T09:44:05.933Z,3.37
2023-05-03T09:49:18.318Z,2.70
2023-05-03T09:54:32.074Z,7.93
2023-05-03T09:59:39.564Z,2.80
2023-05-03T10:05:01.575Z,2.80
2023-05-03T10:10:08.197Z,2.33
2023-05-03T10:15:16.536Z,2.73
2023-05-03T10:20:31.967Z,2.60
2023-05-03T10:25:43.122Z,3.13
2023-05-03T10:30:50.459Z,2.70
2023-05-03T10:35:59.371Z,2.23
2023-05-03T10:41:07.401Z,2.30
2023-05-03T10:46:33.431Z,2.73
2023-05-03T10:51:43.877Z,4.90
2023-05-03T10:57:00.529Z,2.83
2023-05-03T11:02:06.353Z,2.60
2023-05-03T11:07:23.649Z,3.03
2023-05-03T11:12:29.609Z,2.40
2023-05-03T11:17:36.958Z,2.57
2023-05-03T11:22:51.619Z,2.63
2023-05-03T11:28:02.320Z,2.10
2023-05-03T11:33:10.694Z,2.47
2023-05-03T11:38:22.375Z,2.40
2023-05-03T11:43:42.682Z,2.50
2023-05-03T11:48:51.152Z,2.80
2023-05-03T11:54:02.859Z,2.53
2023-05-03T11:59:15.520Z,2.63
2023-05-03T12:04:21.521Z,2.70
2023-05-03T12:09:31.760Z,2.20
2023-05-03T12:15:00.387Z,2.10
2023-05-03T12:25:39.586Z,2.97
2023-05-03T12:30:49.040Z,2.40
2023-05-03T12:35:59.082Z,2.00
2023-05-03T12:41:09.181Z,2.40
2023-05-03T12:46:33.234Z,1.90
2023-05-03T12:51:42.723Z,2.93
2023-05-03T12:56:54.841Z,2.30
2023-05-03T13:07:13.468Z,2.47
2023-05-03T13:12:22.713Z,2.67
2023-05-03T13:17:27.900Z,2.23
2023-05-03T13:22:36.037Z,2.23
2023-05-03T13:27:53.585Z,2.20
2023-05-03T13:32:58.960Z,2.27
2023-05-03T13:38:04.280Z,2.10
2023-05-03T13:43:12.225Z,2.37
2023-05-03T13:48:19.194Z,1.83
2023-05-03T13:53:26.546Z,2.37
2023-05-03T13:58:39.307Z,2.23
2023-05-03T14:03:45.592Z,2.73
2023-05-03T14:08:51.637Z,2.30
2023-05-03T14:14:03.415Z,2.47
2023-05-03T14:19:11.082Z,2.80
2023-05-03T14:24:18.925Z,2.13
2023-05-03T14:29:31.744Z,2.80
2023-05-03T14:34:37.422Z,2.60
2023-05-03T14:39:43.163Z,2.27
2023-05-03T14:44:57.076Z,2.07
2023-05-03T14:50:03.019Z,2.10
2023-05-03T14:55:11.207Z,2.27
2023-05-03T15:00:20.155Z,2.67
2023-05-03T15:05:25.888Z,2.20
2023-05-03T15:10:32.226Z,3.00
2023-05-03T15:15:41.298Z,2.07
2023-05-03T15:20:46.795Z,2.23
2023-05-03T15:25:54.492Z,2.47
2023-05-03T15:31:02.466Z,1.80
2023-05-03T15:36:11.503Z,1.80
2023-05-03T15:41:16.806Z,1.90
2023-05-03T15:46:25.026Z,3.03
2023-05-03T15:51:31.807Z,2.37
2023-05-03T15:56:37.955Z,2.27
2023-05-03T16:01:45.966Z,2.07
2023-05-03T16:06:51.755Z,2.30
2023-05-03T16:11:57.922Z,2.37
2023-05-03T16:17:10.933Z,1.80
2023-05-03T16:22:17.301Z,1.87
2023-05-03T16:27:24.707Z,2.43
2023-05-03T16:32:36.340Z,1.83
2023-05-03T16:37:42.182Z,2.27
2023-05-03T16:42:47.404Z,2.43
2023-05-03T16:47:55.611Z,1.97
2023-05-03T16:53:01.159Z,2.20
2023-05-03T16:58:15.739Z,1.90
2023-05-03T17:03:25.489Z,2.20
2023-05-03T17:08:31.287Z,2.13
2023-05-03T17:13:37.097Z,2.40
2023-05-03T17:18:46.431Z,2.40
2023-05-03T17:23:52.473Z,2.17
2023-05-03T17:28:57.739Z,1.73
2023-05-03T17:34:05.941Z,2.27
2023-05-03T17:39:11.329Z,2.03
2023-05-03T17:44:17.606Z,2.10
2023-05-03T17:49:34.349Z,2.57
2023-05-03T17:54:43.382Z,2.23
2023-05-03T17:59:52.049Z,2.53
2023-05-03T18:05:00.381Z,2.90
2023-05-03T18:10:08.991Z,2.13
2023-05-03T18:15:18.981Z,2.53
2023-05-03T18:20:27.289Z,2.70
2023-05-03T18:25:34.023Z,2.30
2023-05-03T18:30:41.954Z,5.20
2023-05-03T18:35:55.318Z,4.03
2023-05-03T18:41:00.508Z,3.70
2023-05-03T18:46:08.038Z,3.07
2023-05-03T18:51:16.843Z,3.90
2023-05-03T18:56:24.540Z,3.17
2023-05-03T19:01:30.297Z,2.93
2023-05-03T19:06:41.055Z,3.13
2023-05-03T19:11:47.842Z,3.33
2023-05-03T19:16:53.170Z,2.63
2023-05-03T19:22:03.413Z,3.03
2023-05-03T19:27:08.761Z,3.23
2023-05-03T19:32:14.578Z,3.53
2023-05-03T19:37:24.986Z,3.10
2023-05-03T19:42:33.122Z,3.10
2023-05-03T19:47:41.830Z,3.70
2023-05-03T19:52:56.515Z,3.40
2023-05-03T19:58:01.996Z,3.30
2023-05-03T20:03:10.189Z,3.40
2023-05-03T20:08:18.970Z,3.80
2023-05-03T20:13:26.752Z,4.07
2023-05-03T20:18:39.106Z,4.50
2023-05-03T20:23:51.016Z,5.23
2023-05-03T20:28:56.218Z,7.50
2023-05-03T20:34:01.739Z,8.33
2023-05-03T20:39:11.671Z,9.30
2023-05-03T20:44:19.185Z,15.60
2023-05-03T20:49:25.269Z,14.00
2023-05-03T20:54:33.837Z,14.20
2023-05-03T20:59:39.587Z,18.83
2023-05-03T21:04:45.156Z,23.60
2023-05-03T21:09:56.645Z,15.80
2023-05-03T21:15:02.696Z,11.77
2023-05-03T21:20:16.400Z,7.93
2023-05-03T21:25:29.035Z,6.40
2023-05-03T21:30:35.038Z,7.10
2023-05-03T21:35:40.550Z,6.77
2023-05-03T21:40:49.732Z,6.67
2023-05-03T21:45:56.917Z,5.70
2023-05-03T21:51:02.240Z,9.80
2023-05-03T21:56:11.088Z,6.77
2023-05-03T22:01:20.324Z,12.17
2023-05-03T22:06:27.158Z,14.80
2023-05-03T22:11:35.979Z,14.57
2023-05-03T22:16:43.009Z,12.23
2023-05-03T22:21:50.349Z,8.67
2023-05-03T22:27:03.416Z,7.07
2023-05-03T22:32:13.522Z,7.97
2023-05-03T22:37:19.624Z,9.37
2023-05-03T22:42:28.134Z,12.87
2023-05-03T22:47:33.517Z,11.73
2023-05-03T22:52:40.468Z,11.13
2023-05-03T22:57:50.803Z,11.30
2023-05-03T23:02:58.408Z,8.20
2023-05-03T23:08:03.857Z,6.87
2023-05-03T23:13:17.236Z,6.87
2023-05-03T23:18:24.592Z,6.47
2023-05-03T23:23:31.538Z,7.23
2023-05-03T23:28:39.545Z,7.03
2023-05-03T23:33:45.168Z,6.77
2023-05-03T23:38:53.453Z,6.53
2023-05-03T23:44:06.262Z,6.60
2023-05-03T23:49:12.752Z,7.47
2023-05-03T23:54:21.464Z,6.77
2023-05-03T23:59:29.368Z,6.67
